createdAt,value
2022-10-02T00:01:27.052Z,12.80
2022-10-02T00:03:55.674Z,12.80
2022-10-02T00:06:25.452Z,12.90
2022-10-02T00:08:59.897Z,12.90
2022-10-02T00:11:38.001Z,12.90
2022-10-02T00:14:12.887Z,12.80
2022-10-02T00:16:42.971Z,12.80
2022-10-02T00:19:12.306Z,12.90
2022-10-02T00:21:57.796Z,12.90
2022-10-02T00:24:29.950Z,12.90
2022-10-02T00:27:02.554Z,12.80
2022-10-02T00:29:41.174Z,12.90
2022-10-02T00:32:21.323Z,12.80
2022-10-02T00:35:19.708Z,12.80
2022-10-02T00:37:55.875Z,12.80
2022-10-02T00:40:43.161Z,12.80
2022-10-02T00:43:20.428Z,12.80
2022-10-02T00:46:21.041Z,12.70
2022-10-02T00:48:59.607Z,12.80
2022-10-02T00:51:42.152Z,12.80
2022-10-02T00:54:26.949Z,12.70
2022-10-02T00:57:07.562Z,12.80
2022-10-02T00:59:53.740Z,12.80
2022-10-02T01:02:57.834Z,12.80
2022-10-02T01:05:27.382Z,12.90
2022-10-02T01:07:56.592Z,12.90
2022-10-02T01:10:26.643Z,12.90
2022-10-02T01:12:58.050Z,12.90
2022-10-02T01:15:31.750Z,12.90
2022-10-02T01:18:02.140Z,13.00
2022-10-02T01:20:39.464Z,13.00
2022-10-02T01:23:17.337Z,13.10
2022-10-02T01:25:47.152Z,13.10
2022-10-02T01:28:15.291Z,13.10
2022-10-02T01:30:47.337Z,13.00
2022-10-02T01:33:17.123Z,13.00
2022-10-02T01:35:45.578Z,13.10
2022-10-02T01:38:17.342Z,13.20
2022-10-02T01:40:46.712Z,13.20
2022-10-02T01:43:18.117Z,13.20
2022-10-02T01:46:02.809Z,13.20
2022-10-02T01:48:43.147Z,13.20
2022-10-02T01:51:26.985Z,13.20
2022-10-02T01:54:05.379Z,13.20
2022-10-02T01:56:42.215Z,13.20
2022-10-02T01:59:25.340Z,13.30
2022-10-02T02:02:06.421Z,13.30
2022-10-02T02:04:43.415Z,13.30
2022-10-02T02:07:20.816Z,13.20
2022-10-02T02:09:57.146Z,13.20
2022-10-02T02:12:32.585Z,13.30
2022-10-02T02:15:05.407Z,13.20
2022-10-02T02:17:39.817Z,13.20
2022-10-02T02:20:14.389Z,13.20
2022-10-02T02:22:46.459Z,13.20
2022-10-02T02:25:19.391Z,13.20
2022-10-02T02:27:51.822Z,13.20
2022-10-02T02:30:21.451Z,13.20
2022-10-02T02:32:54.121Z,13.30
2022-10-02T02:35:27.237Z,13.30
2022-10-02T02:37:58.329Z,13.40
2022-10-02T02:40:30.536Z,13.40
2022-10-02T02:43:05.787Z,13.40
2022-10-02T02:45:37.742Z,13.40
2022-10-02T02:48:09.767Z,13.30
2022-10-02T02:50:41.334Z,13.20
2022-10-02T02:53:13.819Z,13.20
2022-10-02T02:55:46.418Z,13.20
2022-10-02T02:58:19.600Z,13.20
2022-10-02T03:00:47.966Z,13.20
2022-10-02T03:03:16.101Z,13.20
2022-10-02T03:05:49.861Z,13.20
2022-10-02T03:08:24.850Z,13.20
2022-10-02T03:11:05.346Z,13.20
2022-10-02T03:13:52.366Z,13.30
2022-10-02T03:16:36.027Z,13.30
2022-10-02T03:19:16.912Z,13.20
2022-10-02T03:21:56.268Z,13.20
2022-10-02T03:24:30.958Z,13.20
2022-10-02T03:27:05.377Z,13.20
2022-10-02T03:29:38.316Z,13.30
2022-10-02T03:32:08.361Z,13.30
2022-10-02T03:34:38.030Z,13.40
2022-10-02T03:37:06.179Z,13.30
2022-10-02T03:39:34.320Z,13.20
2022-10-02T03:42:02.745Z,13.20
2022-10-02T03:44:30.843Z,13.30
2022-10-02T03:47:00.175Z,13.20
2022-10-02T03:49:28.831Z,13.10
2022-10-02T03:51:56.868Z,13.10
2022-10-02T03:54:25.105Z,13.10
2022-10-02T03:56:56.715Z,13.10
2022-10-02T03:59:40.641Z,13.00
2022-10-02T04:02:20.247Z,13.10
2022-10-02T04:04:53.567Z,13.10
2022-10-02T04:07:27.033Z,13.00
2022-10-02T04:10:08.528Z,13.00
2022-10-02T04:12:40.840Z,13.00
2022-10-02T04:15:17.835Z,13.00
2022-10-02T04:17:53.757Z,12.90
2022-10-02T04:20:31.632Z,12.90
2022-10-02T04:23:05.175Z,13.00
2022-10-02T04:25:38.504Z,13.00
2022-10-02T04:28:09.049Z,13.00
2022-10-02T04:30:37.119Z,13.00
2022-10-02T04:33:13.960Z,13.00
2022-10-02T04:35:52.225Z,13.00
2022-10-02T04:38:44.384Z,13.00
2022-10-02T04:41:32.481Z,13.00
2022-10-02T04:44:09.824Z,13.00
2022-10-02T04:47:00.302Z,13.00
2022-10-02T04:49:51.494Z,13.00
2022-10-02T04:52:44.693Z,12.90
2022-10-02T04:55:44.182Z,12.90
2022-10-02T04:58:30.969Z,12.90
2022-10-02T05:01:08.057Z,12.80
2022-10-02T05:03:50.998Z,12.80
2022-10-02T05:06:38.663Z,12.80
2022-10-02T05:09:14.937Z,12.70
2022-10-02T05:12:00.419Z,12.70
2022-10-02T05:14:59.524Z,12.70
2022-10-02T05:17:45.796Z,12.60
2022-10-02T05:20:29.869Z,12.60
2022-10-02T05:23:12.690Z,12.50
2022-10-02T05:26:04.353Z,12.60
2022-10-02T05:28:44.494Z,12.60
2022-10-02T05:31:23.707Z,12.70
2022-10-02T05:34:07.323Z,12.70
2022-10-02T05:36:54.100Z,12.70
2022-10-02T05:39:28.721Z,12.80
2022-10-02T05:42:06.526Z,12.80
2022-10-02T05:44:39.072Z,12.80
2022-10-02T05:47:14.495Z,12.80
2022-10-02T05:49:48.890Z,12.80
2022-10-02T05:52:20.009Z,12.80
2022-10-02T05:54:55.468Z,12.80
2022-10-02T05:57:32.162Z,12.80
2022-10-02T06:00:23.150Z,12.80
2022-10-02T06:02:56.787Z,12.80
2022-10-02T06:05:30.488Z,12.80
2022-10-02T06:08:03.776Z,12.80
2022-10-02T06:10:42.434Z,12.80
2022-10-02T06:13:14.142Z,12.90
2022-10-02T06:15:51.031Z,12.90
2022-10-02T06:18:22.392Z,12.90
2022-10-02T06:20:55.235Z,12.90
2022-10-02T06:23:26.367Z,12.90
2022-10-02T06:25:59.159Z,12.90
2022-10-02T06:28:36.137Z,12.90
2022-10-02T06:31:22.013Z,13.00
2022-10-02T06:33:52.843Z,13.00
2022-10-02T06:36:38.612Z,13.10
2022-10-02T06:39:20.611Z,13.10
2022-10-02T06:42:00.990Z,13.10
2022-10-02T06:44:36.756Z,13.00
2022-10-02T06:47:16.487Z,13.00
2022-10-02T06:50:07.907Z,13.00
2022-10-02T06:52:45.693Z,13.00
2022-10-02T06:55:38.706Z,13.00
2022-10-02T06:58:21.693Z,13.00
2022-10-02T07:00:55.678Z,13.00
2022-10-02T07:03:36.157Z,13.00
2022-10-02T07:06:24.419Z,13.00
2022-10-02T07:09:06.260Z,12.90
2022-10-02T07:11:43.144Z,12.90
2022-10-02T07:14:35.182Z,12.90
2022-10-02T07:17:23.949Z,12.90
2022-10-02T07:20:16.696Z,13.00
2022-10-02T07:22:58.485Z,13.00
2022-10-02T07:25:48.676Z,13.00
2022-10-02T07:28:25.849Z,13.10
2022-10-02T07:31:05.115Z,13.20
2022-10-02T07:33:48.526Z,13.20
2022-10-02T07:36:25.459Z,13.20
2022-10-02T07:39:04.362Z,13.30
2022-10-02T07:42:01.139Z,13.30
2022-10-02T07:44:47.772Z,13.30
2022-10-02T07:47:27.080Z,13.30
2022-10-02T07:50:01.358Z,13.30
2022-10-02T07:52:39.533Z,13.30
2022-10-02T07:55:15.963Z,13.30
2022-10-02T07:57:49.566Z,13.30
2022-10-02T08:00:19.913Z,13.30
2022-10-02T08:02:54.100Z,13.30
2022-10-02T08:05:24.679Z,13.40
2022-10-02T08:07:57.951Z,13.40
2022-10-02T08:10:29.617Z,13.50
2022-10-02T08:13:04.661Z,13.50
2022-10-02T08:15:37.269Z,13.50
2022-10-02T08:18:33.620Z,13.50
2022-10-02T08:21:03.847Z,13.70
2022-10-02T08:23:37.756Z,13.90
2022-10-02T08:26:11.060Z,13.90
2022-10-02T08:28:43.610Z,13.90
2022-10-02T08:31:13.269Z,14.20
2022-10-02T08:33:43.432Z,14.60
2022-10-02T08:36:33.550Z,14.90
2022-10-02T08:39:15.910Z,15.20
2022-10-02T08:42:16.560Z,15.40
2022-10-02T08:45:33.962Z,15.70
2022-10-02T08:49:02.150Z,16.20
2022-10-02T08:51:53.562Z,16.50
2022-10-02T08:54:58.234Z,16.60
2022-10-02T08:57:57.087Z,16.40
2022-10-02T09:00:31.627Z,16.10
2022-10-02T09:03:45.698Z,16.00
2022-10-02T09:06:53.827Z,16.20
2022-10-02T09:09:58.815Z,16.40
2022-10-02T09:12:51.267Z,17.00
2022-10-02T09:15:23.855Z,17.60
2022-10-02T09:18:12.631Z,17.30
2022-10-02T09:20:43.657Z,17.00
2022-10-02T09:23:39.753Z,16.60
2022-10-02T09:26:20.140Z,16.50
2022-10-02T09:29:36.667Z,16.60
2022-10-02T09:32:54.947Z,16.80
2022-10-02T09:35:54.211Z,17.20
2022-10-02T09:39:01.697Z,17.60
2022-10-02T09:42:07.204Z,17.90
2022-10-02T09:45:12.280Z,17.80
2022-10-02T09:48:16.130Z,17.60
2022-10-02T09:51:24.592Z,17.10
2022-10-02T09:54:31.923Z,16.70
2022-10-02T09:57:36.924Z,16.40
2022-10-02T10:00:16.618Z,16.00
2022-10-02T10:03:04.020Z,16.00
2022-10-02T10:05:53.462Z,16.00
2022-10-02T10:08:58.231Z,15.60
2022-10-02T10:11:49.999Z,15.00
2022-10-02T10:14:57.892Z,14.80
2022-10-02T10:18:11.172Z,14.70
2022-10-02T10:21:07.508Z,14.70
2022-10-02T10:24:00.679Z,14.80
2022-10-02T10:26:54.705Z,14.60
2022-10-02T10:29:53.934Z,14.60
2022-10-02T10:32:44.856Z,14.60
2022-10-02T10:35:29.537Z,14.90
2022-10-02T10:38:33.203Z,15.10
2022-10-02T10:41:22.419Z,15.20
2022-10-02T10:44:22.176Z,15.30
2022-10-02T10:47:18.242Z,15.10
2022-10-02T10:50:20.108Z,14.70
2022-10-02T10:53:14.366Z,14.60
2022-10-02T10:56:07.305Z,14.50
2022-10-02T10:58:52.850Z,14.30
2022-10-02T11:01:36.947Z,14.20
2022-10-02T11:04:39.321Z,14.20
2022-10-02T11:07:35.045Z,14.00
2022-10-02T11:10:36.000Z,14.00
2022-10-02T11:13:31.153Z,14.20
2022-10-02T11:16:17.925Z,14.30
2022-10-02T11:19:21.779Z,14.30
2022-10-02T11:22:10.031Z,14.30
2022-10-02T11:25:12.923Z,14.40
2022-10-02T11:28:08.576Z,14.60
2022-10-02T11:30:50.284Z,14.70
2022-10-02T11:33:48.873Z,14.60
2022-10-02T11:36:42.558Z,14.60
2022-10-02T11:39:17.344Z,14.70
2022-10-02T11:42:19.527Z,14.70
2022-10-02T11:45:09.606Z,14.90
2022-10-02T11:48:02.770Z,14.80
2022-10-02T11:50:49.012Z,14.70
2022-10-02T11:53:29.290Z,14.60
2022-10-02T11:56:16.364Z,14.50
2022-10-02T11:58:57.705Z,14.50
2022-10-02T12:01:36.085Z,14.30
2022-10-02T12:04:21.215Z,14.50
2022-10-02T12:07:04.989Z,14.50
2022-10-02T12:09:46.199Z,14.60
2022-10-02T12:12:29.401Z,14.90
2022-10-02T12:15:04.186Z,15.40
2022-10-02T12:17:57.963Z,15.40
2022-10-02T12:21:01.976Z,15.10
2022-10-02T12:23:59.670Z,14.80
2022-10-02T12:27:09.766Z,14.60
2022-10-02T12:30:00.790Z,14.50
2022-10-02T12:32:53.077Z,14.40
2022-10-02T12:35:43.180Z,14.20
2022-10-02T12:38:27.618Z,14.20
2022-10-02T12:41:07.436Z,14.00
2022-10-02T12:44:05.432Z,13.90
2022-10-02T12:46:59.747Z,14.00
2022-10-02T12:49:45.548Z,14.20
2022-10-02T12:52:50.018Z,14.30
2022-10-02T12:55:54.987Z,14.30
2022-10-02T12:58:29.422Z,14.20
2022-10-02T13:01:37.408Z,14.20
2022-10-02T13:04:29.176Z,14.20
2022-10-02T13:07:20.748Z,14.10
2022-10-02T13:09:57.691Z,14.10
2022-10-02T13:12:51.511Z,14.20
2022-10-02T13:15:29.181Z,14.10
2022-10-02T13:18:06.171Z,14.00
2022-10-02T13:20:40.209Z,14.10
2022-10-02T13:23:23.321Z,14.10
2022-10-02T13:25:59.979Z,14.10
2022-10-02T13:29:10.808Z,14.00
2022-10-02T13:31:47.908Z,14.10
2022-10-02T13:34:28.993Z,14.20
2022-10-02T13:37:16.037Z,14.20
2022-10-02T13:40:14.637Z,14.20
2022-10-02T13:42:54.471Z,14.10
2022-10-02T13:45:30.574Z,14.10
2022-10-02T13:48:09.488Z,14.10
2022-10-02T13:50:50.275Z,14.00
2022-10-02T13:53:58.076Z,13.90
2022-10-02T13:56:37.532Z,13.90
2022-10-02T13:59:29.280Z,13.90
2022-10-02T14:02:11.138Z,13.70
2022-10-02T14:04:51.012Z,13.80
2022-10-02T14:07:37.093Z,14.00
2022-10-02T14:10:18.035Z,14.00
2022-10-02T14:12:59.456Z,14.00
2022-10-02T14:15:38.633Z,13.90
2022-10-02T14:18:30.154Z,13.80
2022-10-02T14:21:09.609Z,14.10
2022-10-02T14:24:06.737Z,14.10
2022-10-02T14:26:51.063Z,13.90
2022-10-02T14:29:36.273Z,13.90
2022-10-02T14:32:27.846Z,13.90
2022-10-02T14:35:23.617Z,14.10
2022-10-02T14:38:09.644Z,14.10
2022-10-02T14:40:47.040Z,14.20
2022-10-02T14:43:34.398Z,14.20
2022-10-02T14:46:19.604Z,14.10
2022-10-02T14:49:28.003Z,14.00
2022-10-02T14:52:09.373Z,14.00
2022-10-02T14:54:55.257Z,14.10
2022-10-02T14:57:47.404Z,14.10
2022-10-02T15:00:19.481Z,14.00
2022-10-02T15:03:39.490Z,13.90
2022-10-02T15:06:21.908Z,13.70
2022-10-02T15:08:57.047Z,13.70
2022-10-02T15:11:47.421Z,13.60
2022-10-02T15:14:23.128Z,13.50
2022-10-02T15:17:18.351Z,13.50
2022-10-02T15:19:51.934Z,13.50
2022-10-02T15:22:27.244Z,13.50
2022-10-02T15:24:58.291Z,13.50
2022-10-02T15:27:42.469Z,13.50
2022-10-02T15:30:19.363Z,13.50
2022-10-02T15:33:10.913Z,13.50
2022-10-02T15:36:10.171Z,13.60
2022-10-02T15:39:05.488Z,13.60
2022-10-02T15:41:41.491Z,13.50
2022-10-02T15:44:36.361Z,13.60
2022-10-02T15:47:14.174Z,13.60
2022-10-02T15:50:15.135Z,13.60
2022-10-02T15:52:54.138Z,13.50
2022-10-02T15:55:29.991Z,13.50
2022-10-02T15:58:28.214Z,13.50
2022-10-02T16:01:24.385Z,13.40
2022-10-02T16:03:54.450Z,13.20
2022-10-02T16:06:37.559Z,13.20
2022-10-02T16:09:22.876Z,13.20
2022-10-02T16:12:02.296Z,13.20
2022-10-02T16:14:42.829Z,13.10
2022-10-02T16:17:46.542Z,13.10
2022-10-02T16:20:35.350Z,13.10
2022-10-02T16:23:34.199Z,13.10
2022-10-02T16:26:22.342Z,13.10
2022-10-02T16:28:57.617Z,13.10
2022-10-02T16:31:49.886Z,13.20
2022-10-02T16:34:39.314Z,13.10
2022-10-02T16:37:24.724Z,13.00
2022-10-02T16:40:00.392Z,13.00
2022-10-02T16:42:39.593Z,12.90
2022-10-02T16:45:41.544Z,12.90
2022-10-02T16:48:17.591Z,12.90
2022-10-02T16:51:11.499Z,12.90
2022-10-02T16:53:45.655Z,12.90
2022-10-02T16:56:24.936Z,12.90
2022-10-02T16:59:01.835Z,12.90
2022-10-02T17:01:39.359Z,12.80
2022-10-02T17:04:23.424Z,12.80
2022-10-02T17:07:00.597Z,12.80
2022-10-02T17:09:35.977Z,12.80
2022-10-02T17:12:21.237Z,12.90
2022-10-02T17:14:57.864Z,12.90
2022-10-02T17:17:35.735Z,12.90
2022-10-02T17:20:19.869Z,12.80
2022-10-02T17:22:58.470Z,12.80
2022-10-02T17:25:31.556Z,12.70
2022-10-02T17:28:07.481Z,12.70
2022-10-02T17:30:51.525Z,12.70
2022-10-02T17:33:22.234Z,12.60
2022-10-02T17:35:57.909Z,12.60
2022-10-02T17:39:04.607Z,12.60
2022-10-02T17:41:43.430Z,12.60
2022-10-02T17:44:24.380Z,12.50
2022-10-02T17:47:08.304Z,12.50
2022-10-02T17:49:48.046Z,12.60
2022-10-02T17:52:42.953Z,12.60
2022-10-02T17:55:53.894Z,12.60
2022-10-02T17:58:29.400Z,12.60
2022-10-02T18:01:07.868Z,12.60
2022-10-02T18:03:53.106Z,12.60
2022-10-02T18:06:32.010Z,12.60
2022-10-02T18:09:26.589Z,12.60
2022-10-02T18:12:14.741Z,12.60
2022-10-02T18:15:15.500Z,12.50
2022-10-02T18:17:55.353Z,12.50
2022-10-02T18:20:34.262Z,12.60
2022-10-02T18:23:24.534Z,12.60
2022-10-02T18:26:07.728Z,12.50
2022-10-02T18:29:02.372Z,12.60
2022-10-02T18:31:56.492Z,12.60
2022-10-02T18:34:43.753Z,12.60
2022-10-02T18:37:27.942Z,12.50
2022-10-02T18:40:10.236Z,12.50
2022-10-02T18:42:49.763Z,12.50
2022-10-02T18:45:39.110Z,12.60
2022-10-02T18:48:22.801Z,12.60
2022-10-02T18:51:16.540Z,12.60
2022-10-02T18:53:58.693Z,12.60
2022-10-02T18:56:52.360Z,12.60
2022-10-02T18:59:47.711Z,12.60
2022-10-02T19:02:36.088Z,12.50
2022-10-02T19:05:20.603Z,12.60
2022-10-02T19:07:56.396Z,12.60
2022-10-02T19:10:30.256Z,12.50
2022-10-02T19:13:02.310Z,12.50
2022-10-02T19:15:33.478Z,12.50
2022-10-02T19:18:05.467Z,12.50
2022-10-02T19:20:51.318Z,12.50
2022-10-02T19:23:42.602Z,12.60
2022-10-02T19:26:19.087Z,12.50
2022-10-02T19:28:50.440Z,12.50
2022-10-02T19:31:23.609Z,12.60
2022-10-02T19:33:55.193Z,12.50
2022-10-02T19:36:28.312Z,12.50
2022-10-02T19:39:01.353Z,12.40
2022-10-02T19:41:35.651Z,12.40
2022-10-02T19:44:11.944Z,12.40
2022-10-02T19:46:42.493Z,12.40
2022-10-02T19:49:25.548Z,12.40
2022-10-02T19:51:55.287Z,12.40
2022-10-02T19:54:28.404Z,12.40
2022-10-02T19:57:02.373Z,12.40
2022-10-02T19:59:42.686Z,12.40
2022-10-02T20:02:17.550Z,12.30
2022-10-02T20:04:45.941Z,12.40
2022-10-02T20:07:18.705Z,12.30
2022-10-02T20:09:52.205Z,12.40
2022-10-02T20:12:25.355Z,12.40
2022-10-02T20:14:58.231Z,12.50
2022-10-02T20:17:25.371Z,12.60
2022-10-02T20:19:57.809Z,12.60
2022-10-02T20:22:34.138Z,12.60
2022-10-02T20:25:09.246Z,12.60
2022-10-02T20:27:44.534Z,12.60
2022-10-02T20:30:15.337Z,12.60
2022-10-02T20:32:48.575Z,12.50
2022-10-02T20:35:21.565Z,12.50
2022-10-02T20:37:53.267Z,12.60
2022-10-02T20:40:30.013Z,12.50
2022-10-02T20:43:05.193Z,12.50
2022-10-02T20:45:40.496Z,12.40
2022-10-02T20:49:14.008Z,12.30
2022-10-02T20:52:15.374Z,12.20
2022-10-02T20:54:57.817Z,12.10
2022-10-02T20:58:03.173Z,12.00
2022-10-02T21:00:46.509Z,11.90
2022-10-02T21:03:32.955Z,11.70
2022-10-02T21:06:22.766Z,11.60
2022-10-02T21:09:27.347Z,11.60
2022-10-02T21:12:22.964Z,11.50
2022-10-02T21:15:38.458Z,11.50
2022-10-02T21:18:42.163Z,11.40
2022-10-02T21:21:54.779Z,11.30
2022-10-02T21:25:18.323Z,11.30
2022-10-02T21:28:23.331Z,11.30
2022-10-02T21:31:04.173Z,11.40
2022-10-02T21:33:40.508Z,11.40
2022-10-02T21:36:14.999Z,11.60
2022-10-02T21:39:30.349Z,11.60
2022-10-02T21:42:32.016Z,11.80
2022-10-02T21:45:32.908Z,11.90
2022-10-02T21:48:29.010Z,11.90
2022-10-02T21:51:44.140Z,11.90
2022-10-02T21:54:50.922Z,12.00
2022-10-02T21:58:01.265Z,11.90
2022-10-02T22:00:31.512Z,12.00
2022-10-02T22:03:35.599Z,12.00
2022-10-02T22:06:14.212Z,12.00
2022-10-02T22:09:08.640Z,12.00
2022-10-02T22:11:49.877Z,12.00
2022-10-02T22:14:28.348Z,12.00
2022-10-02T22:17:04.542Z,12.00
2022-10-02T22:19:47.246Z,12.00
2022-10-02T22:22:29.480Z,12.00
2022-10-02T22:25:22.507Z,12.00
2022-10-02T22:28:16.170Z,12.00
2022-10-02T22:31:03.746Z,12.00
2022-10-02T22:33:44.600Z,12.00
2022-10-02T22:36:51.595Z,12.10
2022-10-02T22:39:32.711Z,12.10
2022-10-02T22:42:07.052Z,12.10
2022-10-02T22:44:39.908Z,12.10
2022-10-02T22:47:13.320Z,12.10
2022-10-02T22:49:46.703Z,12.10
2022-10-02T22:52:23.564Z,12.20
2022-10-02T22:55:04.647Z,12.10
2022-10-02T22:57:40.263Z,12.20
2022-10-02T23:00:17.635Z,12.20
2022-10-02T23:02:54.667Z,12.20
2022-10-02T23:05:30.998Z,12.20
2022-10-02T23:08:04.617Z,12.20
2022-10-02T23:10:43.630Z,12.10
2022-10-02T23:13:17.038Z,12.10
2022-10-02T23:15:54.218Z,12.10
2022-10-02T23:18:35.922Z,12.10
2022-10-02T23:21:11.740Z,12.10
2022-10-02T23:23:50.879Z,12.00
2022-10-02T23:26:29.708Z,12.00
2022-10-02T23:29:06.545Z,11.90
2022-10-02T23:31:38.445Z,12.00
2022-10-02T23:34:27.084Z,12.00
2022-10-02T23:36:59.942Z,12.00
2022-10-02T23:39:35.910Z,12.00
2022-10-02T23:42:11.917Z,11.90
2022-10-02T23:44:46.832Z,12.00
2022-10-02T23:47:23.338Z,12.00
2022-10-02T23:49:54.169Z,11.90
2022-10-02T23:52:54.121Z,11.70
2022-10-02T23:55:45.142Z,11.80
2022-10-02T23:58:35.776Z,11.80
